createdAt,value
2018-12-23T00:01:46.664Z,5.70
2018-12-23T00:04:14.218Z,5.70
2018-12-23T00:06:41.761Z,5.60
2018-12-23T00:09:09.340Z,5.60
2018-12-23T00:11:36.903Z,5.40
2018-12-23T00:14:04.393Z,5.30
2018-12-23T00:16:31.886Z,5.30
2018-12-23T00:18:59.363Z,5.30
2018-12-23T00:21:26.838Z,5.20
2018-12-23T00:23:54.344Z,5.20
2018-12-23T00:26:21.804Z,5.20
2018-12-23T00:28:49.291Z,5.20
2018-12-23T00:31:16.797Z,5.10
2018-12-23T00:33:44.337Z,5.20
2018-12-23T00:36:11.833Z,5.30
2018-12-23T00:38:39.355Z,5.50
2018-12-23T00:41:06.991Z,5.40
2018-12-23T00:43:34.484Z,5.30
2018-12-23T00:46:02.034Z,5.20
2018-12-23T00:48:29.505Z,5.20
2018-12-23T00:50:57.049Z,5.20
2018-12-23T00:53:24.515Z,5.20
2018-12-23T00:55:52.003Z,5.20
2018-12-23T00:58:19.528Z,5.20
2018-12-23T01:00:47.021Z,5.10
2018-12-23T01:03:14.550Z,5.10
2018-12-23T01:05:42.116Z,5.10
2018-12-23T01:08:09.677Z,5.10
2018-12-23T01:10:37.203Z,5.10
2018-12-23T01:13:04.678Z,5.20
2018-12-23T01:15:32.186Z,5.10
2018-12-23T01:17:59.651Z,5.10
2018-12-23T01:20:27.156Z,5.10
2018-12-23T01:22:54.635Z,5.10
2018-12-23T01:25:22.133Z,5.10
2018-12-23T01:27:49.613Z,5.20
2018-12-23T01:30:17.096Z,5.20
2018-12-23T01:32:44.660Z,5.30
2018-12-23T01:35:12.138Z,5.20
2018-12-23T01:37:39.651Z,5.20
2018-12-23T01:40:07.101Z,5.20
2018-12-23T01:42:34.608Z,5.20
2018-12-23T01:45:02.090Z,5.20
2018-12-23T01:47:29.582Z,5.30
2018-12-23T01:49:57.049Z,5.20
2018-12-23T01:52:24.545Z,5.30
2018-12-23T01:54:52.030Z,5.30
2018-12-23T01:57:19.523Z,5.30
2018-12-23T01:59:47.009Z,5.30
2018-12-23T02:02:14.502Z,5.30
2018-12-23T02:04:41.962Z,5.30
2018-12-23T02:07:10.394Z,5.20
2018-12-23T02:09:37.917Z,5.30
2018-12-23T02:12:05.426Z,5.30
2018-12-23T02:14:32.882Z,5.30
2018-12-23T02:17:00.407Z,5.40
2018-12-23T02:19:27.869Z,5.40
2018-12-23T02:21:55.358Z,5.40
2018-12-23T02:24:22.840Z,5.30
2018-12-23T02:26:50.401Z,5.40
2018-12-23T02:29:18.076Z,5.30
2018-12-23T02:31:45.734Z,5.30
2018-12-23T02:34:13.251Z,5.30
2018-12-23T02:36:40.743Z,5.30
2018-12-23T02:39:08.221Z,5.30
2018-12-23T02:41:36.396Z,5.20
2018-12-23T02:44:03.956Z,5.20
2018-12-23T02:46:31.511Z,5.20
2018-12-23T02:48:59.011Z,5.30
2018-12-23T02:51:26.485Z,5.30
2018-12-23T02:53:54.073Z,5.30
2018-12-23T02:56:21.554Z,5.30
2018-12-23T02:58:49.051Z,5.30
2018-12-23T03:01:16.525Z,5.30
2018-12-23T03:03:44.019Z,5.40
2018-12-23T03:06:11.676Z,5.40
2018-12-23T03:08:39.171Z,5.30
2018-12-23T03:11:06.633Z,5.40
2018-12-23T03:13:34.124Z,5.30
2018-12-23T03:16:01.630Z,5.40
2018-12-23T03:18:29.184Z,5.50
2018-12-23T03:20:56.734Z,5.60
2018-12-23T03:23:24.297Z,5.50
2018-12-23T03:25:51.778Z,5.50
2018-12-23T03:28:19.332Z,5.40
2018-12-23T03:30:46.881Z,5.40
2018-12-23T03:33:14.434Z,5.40
2018-12-23T03:35:42.004Z,5.40
2018-12-23T03:38:09.561Z,5.40
2018-12-23T03:40:37.437Z,5.50
2018-12-23T03:43:04.920Z,5.50
2018-12-23T03:45:32.413Z,5.40
2018-12-23T03:48:00.015Z,5.50
2018-12-23T03:50:27.572Z,5.50
2018-12-23T03:52:55.070Z,5.40
2018-12-23T03:55:23.474Z,5.40
2018-12-23T03:57:50.983Z,5.40
2018-12-23T04:00:18.448Z,5.50
2018-12-23T04:02:45.931Z,5.50
2018-12-23T04:05:13.424Z,5.50
2018-12-23T04:07:40.911Z,5.50
2018-12-23T04:10:08.402Z,5.50
2018-12-23T04:12:35.939Z,5.50
2018-12-23T04:15:03.938Z,5.50
2018-12-23T04:17:31.435Z,5.50
2018-12-23T04:19:58.950Z,5.60
2018-12-23T04:22:26.449Z,5.60
2018-12-23T04:24:53.942Z,5.60
2018-12-23T04:27:21.506Z,5.60
2018-12-23T04:29:49.017Z,5.60
2018-12-23T04:32:16.533Z,5.60
2018-12-23T04:34:44.023Z,5.60
2018-12-23T04:37:11.559Z,5.60
2018-12-23T04:39:39.113Z,5.70
2018-12-23T04:42:06.588Z,5.70
2018-12-23T04:44:34.140Z,5.70
2018-12-23T04:47:01.609Z,5.70
2018-12-23T04:49:29.126Z,5.70
2018-12-23T04:51:56.604Z,5.80
2018-12-23T04:54:24.082Z,5.80
2018-12-23T04:56:51.558Z,5.80
2018-12-23T04:59:19.081Z,5.80
2018-12-23T05:01:46.638Z,5.80
2018-12-23T05:04:14.133Z,5.80
2018-12-23T05:06:43.384Z,5.90
2018-12-23T05:09:11.179Z,5.90
2018-12-23T05:11:38.730Z,5.90
2018-12-23T05:14:06.289Z,5.90
2018-12-23T05:16:33.798Z,5.80
2018-12-23T05:19:01.283Z,5.90
2018-12-23T05:21:28.768Z,5.90
2018-12-23T05:23:56.317Z,5.90
2018-12-23T05:26:23.881Z,5.90
2018-12-23T05:28:51.437Z,5.90
2018-12-23T05:31:18.921Z,5.90
2018-12-23T05:33:46.476Z,5.90
2018-12-23T05:36:14.030Z,5.90
2018-12-23T05:38:41.613Z,6.00
2018-12-23T05:41:09.164Z,6.00
2018-12-23T05:43:36.715Z,6.00
2018-12-23T05:46:04.213Z,6.00
2018-12-23T05:48:31.692Z,6.00
2018-12-23T05:50:59.189Z,6.10
2018-12-23T05:53:26.741Z,6.10
2018-12-23T05:55:53.819Z,6.10
2018-12-23T05:58:21.296Z,6.10
2018-12-23T06:00:48.778Z,6.10
2018-12-23T06:03:16.257Z,6.10
2018-12-23T06:05:43.826Z,6.10
2018-12-23T06:08:11.399Z,6.10
2018-12-23T06:10:38.901Z,6.10
2018-12-23T06:13:06.418Z,6.20
2018-12-23T06:15:33.912Z,6.20
2018-12-23T06:18:01.398Z,6.20
2018-12-23T06:20:28.892Z,6.20
2018-12-23T06:22:56.367Z,6.20
2018-12-23T06:25:23.857Z,6.20
2018-12-23T06:27:51.342Z,6.30
2018-12-23T06:30:18.949Z,6.30
2018-12-23T06:32:46.459Z,6.30
2018-12-23T06:35:13.974Z,6.30
2018-12-23T06:37:41.519Z,6.30
2018-12-23T06:40:09.005Z,6.30
2018-12-23T06:42:36.488Z,6.40
2018-12-23T06:45:05.129Z,6.40
2018-12-23T06:47:32.678Z,6.40
2018-12-23T06:50:00.160Z,6.40
2018-12-23T06:52:27.811Z,6.50
2018-12-23T06:54:55.303Z,6.40
2018-12-23T06:57:22.798Z,6.50
2018-12-23T06:59:50.285Z,6.40
2018-12-23T07:02:17.844Z,6.40
2018-12-23T07:04:45.309Z,6.40
2018-12-23T07:07:18.590Z,6.50
2018-12-23T07:09:42.368Z,6.50
2018-12-23T07:12:09.854Z,6.50
2018-12-23T07:14:37.449Z,6.50
2018-12-23T07:17:04.950Z,6.50
2018-12-23T07:19:32.444Z,6.50
2018-12-23T07:21:59.926Z,6.60
2018-12-23T07:24:27.411Z,6.60
2018-12-23T07:26:54.989Z,6.60
2018-12-23T07:29:22.555Z,6.60
2018-12-23T07:31:50.128Z,6.60
2018-12-23T07:34:17.782Z,6.60
2018-12-23T07:36:49.582Z,6.60
2018-12-23T07:39:14.915Z,6.60
2018-12-23T07:41:42.402Z,6.60
2018-12-23T07:44:09.916Z,6.60
2018-12-23T07:46:37.427Z,6.60
2018-12-23T07:49:04.978Z,6.60
2018-12-23T07:51:32.681Z,6.60
2018-12-23T07:54:00.170Z,6.70
2018-12-23T07:56:27.708Z,6.70
2018-12-23T07:58:55.362Z,6.70
2018-12-23T08:01:22.978Z,6.70
2018-12-23T08:03:50.556Z,6.70
2018-12-23T08:06:18.047Z,6.70
2018-12-23T08:08:45.576Z,6.70
2018-12-23T08:11:13.061Z,6.70
2018-12-23T08:13:40.554Z,6.80
2018-12-23T08:16:10.128Z,6.80
2018-12-23T08:18:37.597Z,6.80
2018-12-23T08:21:05.077Z,6.80
2018-12-23T08:23:32.542Z,6.80
2018-12-23T08:26:00.020Z,6.80
2018-12-23T08:28:27.542Z,6.80
2018-12-23T08:30:55.011Z,6.80
2018-12-23T08:33:22.498Z,6.80
2018-12-23T08:35:50.256Z,6.80
2018-12-23T08:38:17.743Z,6.80
2018-12-23T08:40:45.254Z,6.80
2018-12-23T08:43:12.762Z,6.80
2018-12-23T08:45:40.231Z,6.80
2018-12-23T08:48:07.711Z,6.80
2018-12-23T08:50:35.193Z,6.80
2018-12-23T08:53:02.695Z,6.80
2018-12-23T08:55:30.172Z,6.80
2018-12-23T08:57:57.686Z,6.80
2018-12-23T09:00:25.974Z,6.90
2018-12-23T09:02:53.458Z,6.90
2018-12-23T09:05:20.943Z,6.90
2018-12-23T09:07:52.966Z,6.90
2018-12-23T09:10:17.922Z,7.00
2018-12-23T09:12:45.403Z,7.00
2018-12-23T09:15:13.002Z,7.00
2018-12-23T09:17:40.468Z,7.00
2018-12-23T09:20:08.127Z,7.10
2018-12-23T09:22:35.597Z,7.10
2018-12-23T09:25:04.234Z,7.10
2018-12-23T09:27:31.713Z,7.10
2018-12-23T09:29:59.204Z,7.20
2018-12-23T09:32:26.849Z,7.20
2018-12-23T09:34:54.406Z,7.20
2018-12-23T09:37:21.961Z,7.20
2018-12-23T09:39:49.525Z,7.20
2018-12-23T09:42:17.113Z,7.20
2018-12-23T09:44:44.651Z,7.20
2018-12-23T09:47:12.150Z,7.30
2018-12-23T09:49:39.635Z,7.40
2018-12-23T09:52:07.133Z,7.40
2018-12-23T09:54:34.617Z,7.30
2018-12-23T09:57:02.108Z,7.40
2018-12-23T09:59:29.589Z,7.40
2018-12-23T10:01:57.074Z,7.40
2018-12-23T10:04:24.623Z,7.40
2018-12-23T10:06:52.096Z,7.40
2018-12-23T10:09:19.575Z,7.40
2018-12-23T10:11:47.055Z,7.40
2018-12-23T10:14:14.584Z,7.40
2018-12-23T10:16:42.054Z,7.50
2018-12-23T10:19:09.532Z,7.50
2018-12-23T10:21:37.020Z,7.50
2018-12-23T10:24:04.501Z,7.60
2018-12-23T10:26:31.976Z,7.60
2018-12-23T10:28:59.468Z,7.70
2018-12-23T10:31:26.955Z,7.70
2018-12-23T10:33:55.529Z,7.70
2018-12-23T10:36:23.037Z,7.70
2018-12-23T10:38:50.590Z,7.60
2018-12-23T10:41:18.081Z,7.60
2018-12-23T10:43:45.614Z,7.60
2018-12-23T10:46:13.195Z,7.60
2018-12-23T10:48:40.643Z,7.60
2018-12-23T10:51:08.197Z,7.60
2018-12-23T10:53:36.268Z,7.60
2018-12-23T10:56:03.785Z,7.60
2018-12-23T10:58:31.244Z,7.70
2018-12-23T11:00:58.865Z,7.70
2018-12-23T11:03:26.453Z,7.70
2018-12-23T11:05:53.965Z,7.70
2018-12-23T11:08:26.830Z,7.70
2018-12-23T11:10:51.059Z,7.80
2018-12-23T11:13:18.588Z,7.80
2018-12-23T11:15:46.060Z,7.80
2018-12-23T11:18:13.543Z,7.80
2018-12-23T11:20:41.038Z,7.80
2018-12-23T11:23:08.538Z,7.80
2018-12-23T11:25:36.004Z,7.90
2018-12-23T11:28:03.550Z,7.90
2018-12-23T11:30:31.042Z,7.90
2018-12-23T11:32:58.531Z,7.90
2018-12-23T11:35:26.061Z,8.00
2018-12-23T11:37:53.593Z,8.00
2018-12-23T11:40:21.115Z,8.00
2018-12-23T11:42:48.613Z,8.00
2018-12-23T11:45:16.172Z,8.00
2018-12-23T11:47:43.645Z,8.00
2018-12-23T11:50:11.173Z,7.90
2018-12-23T11:52:38.745Z,7.90
2018-12-23T11:55:06.216Z,7.80
2018-12-23T11:57:33.700Z,7.80
2018-12-23T12:00:01.227Z,7.80
2018-12-23T12:02:28.814Z,7.70
2018-12-23T12:04:56.349Z,7.80
2018-12-23T12:07:23.829Z,7.70
2018-12-23T12:09:51.323Z,7.70
2018-12-23T12:12:18.806Z,7.70
2018-12-23T12:14:46.289Z,7.70
2018-12-23T12:17:13.849Z,7.70
2018-12-23T12:19:41.342Z,7.70
2018-12-23T12:22:08.821Z,7.70
2018-12-23T12:24:36.368Z,7.70
2018-12-23T12:27:03.855Z,7.70
2018-12-23T12:29:31.335Z,7.70
2018-12-23T12:31:58.801Z,7.70
2018-12-23T12:34:26.357Z,7.70
2018-12-23T12:36:54.042Z,7.70
2018-12-23T12:39:21.617Z,7.60
2018-12-23T12:41:49.099Z,7.60
2018-12-23T12:44:16.593Z,7.50
2018-12-23T12:46:44.163Z,7.50
2018-12-23T12:49:11.677Z,7.40
2018-12-23T12:51:39.186Z,7.40
2018-12-23T12:54:06.657Z,7.40
2018-12-23T12:56:34.151Z,7.40
2018-12-23T12:59:01.758Z,7.40
2018-12-23T13:01:29.322Z,7.30
2018-12-23T13:03:58.924Z,7.30
2018-12-23T13:06:26.297Z,7.30
2018-12-23T13:09:00.426Z,7.20
2018-12-23T13:11:23.357Z,7.20
2018-12-23T13:13:50.918Z,7.10
2018-12-23T13:16:18.489Z,7.10
2018-12-23T13:18:45.971Z,7.10
2018-12-23T13:21:13.559Z,7.10
2018-12-23T13:23:41.068Z,7.00
2018-12-23T13:26:08.553Z,7.00
2018-12-23T13:28:36.046Z,7.00
2018-12-23T13:31:03.539Z,6.90
2018-12-23T13:33:31.112Z,6.90
2018-12-23T13:35:58.613Z,7.00
2018-12-23T13:38:26.201Z,6.90
2018-12-23T13:40:57.506Z,6.90
2018-12-23T13:43:36.727Z,6.80
2018-12-23T13:46:14.955Z,6.70
2018-12-23T13:52:35.643Z,6.70
2018-12-23T13:55:16.494Z,6.70
2018-12-23T13:57:57.432Z,6.60
2018-12-23T14:00:38.633Z,6.60
2018-12-23T14:03:19.436Z,6.10
2018-12-23T14:06:00.741Z,6.70
2018-12-23T14:08:41.798Z,6.70
2018-12-23T14:11:22.223Z,6.70
2018-12-23T14:14:02.989Z,6.70
2018-12-23T14:16:43.503Z,6.80
2018-12-23T14:19:24.808Z,6.80
2018-12-23T14:22:06.066Z,6.90
2018-12-23T14:24:46.495Z,6.90
2018-12-23T14:27:26.966Z,7.00
2018-12-23T14:30:08.234Z,7.00
2018-12-23T14:32:49.142Z,7.00
2018-12-23T14:35:29.575Z,7.00
2018-12-23T14:38:10.754Z,7.10
2018-12-23T14:40:51.187Z,7.10
2018-12-23T14:43:31.866Z,7.10
2018-12-23T14:46:13.153Z,7.10
2018-12-23T14:48:54.311Z,7.10
2018-12-23T14:51:35.443Z,7.10
2018-12-23T14:54:16.315Z,7.10
2018-12-23T14:56:57.502Z,7.10
2018-12-23T14:59:38.404Z,7.10
2018-12-23T15:02:19.160Z,7.10
2018-12-23T15:05:00.194Z,7.10
2018-12-23T15:07:40.705Z,7.10
2018-12-23T15:10:21.753Z,7.00
2018-12-23T15:13:02.966Z,7.00
2018-12-23T15:15:43.394Z,7.00
2018-12-23T15:18:24.478Z,7.00
2018-12-23T15:21:05.367Z,7.00
2018-12-23T15:23:46.382Z,7.00
2018-12-23T15:26:27.650Z,6.70
2018-12-23T15:29:08.122Z,7.00
2018-12-23T15:31:48.458Z,7.00
2018-12-23T15:34:28.940Z,7.00
2018-12-23T15:37:10.170Z,7.00
2018-12-23T15:39:51.254Z,7.00
2018-12-23T15:42:32.350Z,7.00
2018-12-23T15:45:14.404Z,7.00
2018-12-23T15:47:55.446Z,7.00
2018-12-23T15:50:36.011Z,7.00
2018-12-23T15:53:16.981Z,7.00
2018-12-23T15:55:59.031Z,7.00
2018-12-23T15:58:39.799Z,7.00
2018-12-23T16:01:20.765Z,7.00
2018-12-23T16:04:02.044Z,7.00
2018-12-23T16:06:42.923Z,7.00
2018-12-23T16:09:24.018Z,7.00
2018-12-23T16:12:04.946Z,6.90
2018-12-23T16:14:45.875Z,7.00
2018-12-23T16:17:27.118Z,7.10
2018-12-23T16:20:08.170Z,7.10
2018-12-23T16:22:49.418Z,7.10
2018-12-23T16:25:30.691Z,7.00
2018-12-23T16:28:11.129Z,7.10
2018-12-23T16:30:51.550Z,7.00
2018-12-23T16:33:32.786Z,7.10
2018-12-23T16:36:14.295Z,7.00
2018-12-23T16:38:54.742Z,7.00
2018-12-23T16:41:35.832Z,7.00
2018-12-23T16:44:16.245Z,7.00
2018-12-23T16:46:57.381Z,7.00
2018-12-23T16:49:37.791Z,7.00
2018-12-23T16:52:18.809Z,7.00
2018-12-23T16:54:59.647Z,7.00
2018-12-23T16:57:40.866Z,7.00
2018-12-23T17:00:22.123Z,7.00
2018-12-23T17:03:03.139Z,7.00
2018-12-23T17:05:44.041Z,7.00
2018-12-23T17:08:25.119Z,7.00
2018-12-23T17:11:05.760Z,7.00
2018-12-23T17:13:46.726Z,7.00
2018-12-23T17:16:27.400Z,7.00
2018-12-23T17:19:08.815Z,6.90
2018-12-23T17:21:49.680Z,6.90
2018-12-23T17:24:30.887Z,6.90
2018-12-23T17:27:12.219Z,6.90
2018-12-23T17:29:53.537Z,6.90
2018-12-23T17:32:34.857Z,6.90
2018-12-23T17:35:15.431Z,6.90
2018-12-23T17:37:56.691Z,6.70
2018-12-23T17:40:37.591Z,6.90
2018-12-23T17:43:18.630Z,6.90
2018-12-23T17:45:59.683Z,6.90
2018-12-23T17:48:40.922Z,6.90
2018-12-23T17:51:22.107Z,6.90
2018-12-23T17:54:03.355Z,6.90
2018-12-23T17:56:44.050Z,6.90
2018-12-23T17:59:25.334Z,6.90
2018-12-23T18:02:06.205Z,6.90
2018-12-23T18:04:47.041Z,6.90
2018-12-23T18:07:27.864Z,6.90
2018-12-23T18:10:09.068Z,6.90
2018-12-23T18:12:50.285Z,6.90
2018-12-23T18:15:31.224Z,6.90
2018-12-23T18:18:12.413Z,6.80
2018-12-23T18:20:53.573Z,6.80
2018-12-23T18:23:34.009Z,6.80
2018-12-23T18:26:14.270Z,6.90
2018-12-23T18:28:55.579Z,6.80
2018-12-23T18:31:36.780Z,6.80
2018-12-23T18:34:17.980Z,6.80
2018-12-23T18:36:59.217Z,6.80
2018-12-23T18:39:39.635Z,6.80
2018-12-23T18:42:20.869Z,6.80
2018-12-23T18:45:01.211Z,6.80
2018-12-23T18:47:42.076Z,6.80
2018-12-23T18:50:22.483Z,6.70
2018-12-23T18:53:03.315Z,6.70
2018-12-23T18:55:44.375Z,6.70
2018-12-23T18:58:24.971Z,6.70
2018-12-23T19:01:05.865Z,6.70
2018-12-23T19:03:46.903Z,6.70
2018-12-23T19:06:28.051Z,6.70
2018-12-23T19:09:09.246Z,6.10
2018-12-23T19:11:50.271Z,6.80
2018-12-23T19:14:31.379Z,6.80
2018-12-23T19:17:11.823Z,6.80
2018-12-23T19:19:52.872Z,6.80
2018-12-23T19:22:34.124Z,6.80
2018-12-23T19:25:15.470Z,6.80
2018-12-23T19:27:56.519Z,6.70
2018-12-23T19:30:37.860Z,6.70
2018-12-23T19:33:18.843Z,6.70
2018-12-23T19:36:00.086Z,6.70
2018-12-23T19:38:40.494Z,6.70
2018-12-23T19:41:21.649Z,6.70
2018-12-23T19:44:03.011Z,6.70
2018-12-23T19:46:43.477Z,6.00
2018-12-23T19:49:24.204Z,6.70
2018-12-23T19:52:05.330Z,6.70
2018-12-23T19:54:46.323Z,6.70
2018-12-23T19:57:26.687Z,6.60
2018-12-23T20:00:07.833Z,6.60
2018-12-23T20:02:48.864Z,6.60
2018-12-23T20:05:29.750Z,6.60
2018-12-23T20:08:10.965Z,6.60
2018-12-23T20:10:59.056Z,6.60
2018-12-23T20:13:34.254Z,6.60
2018-12-23T20:16:15.585Z,6.60
2018-12-23T20:18:56.636Z,6.60
2018-12-23T20:21:37.072Z,6.50
2018-12-23T20:24:18.234Z,6.60
2018-12-23T20:26:59.506Z,6.50
2018-12-23T20:29:40.660Z,6.50
2018-12-23T20:32:21.926Z,6.40
2018-12-23T20:35:03.068Z,6.40
2018-12-23T20:37:43.742Z,6.40
2018-12-23T20:40:25.337Z,6.40
2018-12-23T20:43:06.102Z,6.40
2018-12-23T20:45:46.620Z,6.40
2018-12-23T20:48:27.086Z,6.40
2018-12-23T20:51:08.077Z,6.40
2018-12-23T20:53:49.373Z,6.40
2018-12-23T20:56:30.615Z,6.40
2018-12-23T20:59:11.732Z,6.30
2018-12-23T21:01:52.620Z,6.40
2018-12-23T21:04:33.015Z,6.40
2018-12-23T21:07:14.224Z,6.40
2018-12-23T21:09:54.767Z,6.30
2018-12-23T21:12:35.709Z,6.40
2018-12-23T21:15:16.734Z,6.40
2018-12-23T21:17:57.770Z,6.30
2018-12-23T21:20:38.190Z,6.30
2018-12-23T21:23:19.080Z,6.30
2018-12-23T21:25:59.512Z,6.30
2018-12-23T21:28:40.804Z,6.30
2018-12-23T21:31:21.960Z,6.20
2018-12-23T21:34:02.578Z,6.20
2018-12-23T21:36:43.504Z,6.20
2018-12-23T21:39:24.511Z,6.20
2018-12-23T21:42:05.447Z,6.20
2018-12-23T21:44:46.729Z,6.30
2018-12-23T21:47:27.398Z,6.40
2018-12-23T21:50:08.369Z,6.50
2018-12-23T21:52:49.384Z,6.60
2018-12-23T21:55:30.426Z,6.60
2018-12-23T21:58:10.938Z,6.60
2018-12-23T22:00:51.366Z,6.60
2018-12-23T22:03:32.044Z,6.60
2018-12-23T22:06:13.224Z,6.50
2018-12-23T22:08:54.123Z,6.50
2018-12-23T22:11:34.966Z,6.50
2018-12-23T22:14:15.835Z,6.40
2018-12-23T22:16:56.168Z,6.40
2018-12-23T22:19:37.234Z,6.40
2018-12-23T22:22:17.530Z,6.40
2018-12-23T22:24:57.967Z,6.40
2018-12-23T22:27:38.591Z,6.30
2018-12-23T22:30:19.886Z,6.30
2018-12-23T22:33:00.359Z,6.30
2018-12-23T22:35:41.534Z,6.30
2018-12-23T22:38:22.781Z,6.30
2018-12-23T22:41:03.245Z,6.30
2018-12-23T22:43:44.523Z,6.30
2018-12-23T22:46:25.592Z,6.30
2018-12-23T22:49:06.518Z,6.30
2018-12-23T22:51:47.587Z,6.30
2018-12-23T22:54:28.843Z,6.30
2018-12-23T22:57:10.073Z,6.40
2018-12-23T22:59:51.109Z,6.30
2018-12-23T23:02:32.127Z,6.30
2018-12-23T23:05:13.410Z,5.70
2018-12-23T23:07:54.522Z,6.30
2018-12-23T23:10:35.707Z,6.30
2018-12-23T23:13:18.723Z,6.30
2018-12-23T23:15:59.279Z,6.30
2018-12-23T23:18:39.618Z,6.20
2018-12-23T23:21:20.532Z,6.20
2018-12-23T23:24:01.867Z,6.20
2018-12-23T23:26:43.098Z,6.20
2018-12-23T23:29:24.341Z,6.20
2018-12-23T23:32:05.460Z,6.10
2018-12-23T23:34:46.143Z,6.10
2018-12-23T23:37:27.383Z,6.10
2018-12-23T23:40:08.479Z,6.10
2018-12-23T23:42:48.918Z,6.10
2018-12-23T23:45:30.066Z,6.10
2018-12-23T23:48:11.225Z,6.00
2018-12-23T23:50:52.607Z,6.00
2018-12-23T23:53:33.106Z,6.00
2018-12-23T23:56:14.075Z,6.00
2018-12-23T23:58:55.348Z,6.00
